Latest Coastal Weather Observations for Hogan Island

IDT60701

Issued at 9:42 am EST Friday 19 August 2022 (issued every 10 minutes, with the page automatically refreshed every 10 minutes)

About coastal observations | Map of coastal stations | Coastal observations for TAS | Marine services | Other Formats
Station Details ID: 200838 Name: HOGAN ISLAND Lat: -39.22 Lon: 146.98 Height: 116.0 m
Data from the previous 72 hours. | See also: Recent months at Hogan Island
Date/Time
EST
Wind Sea
Height
m
Swell Vis
km
Cloud Weather Temp
°C
Press
MSL
hPa
Rain since
9am
mm
Dir  Spd
kts
Gust
kts
Height
m
Period
s
Dir
19/09:30am W 25 30 - - - - - - - 10.5 1011.5 0.0
19/09:00am WSW 26 29 - - - - - - - 10.7 1011.5 6.2
19/08:30am W 27 32 - - - - - - - 10.5 1011.1 6.2
19/08:00am W 27 31 - - - - - - - 10.3 1010.7 6.2
19/07:30am W 25 29 - - - - - - - 10.0 1010.3 6.2
19/07:00am WSW 29 32 - - - - - - - 9.8 1009.9 6.2
19/06:30am WSW 28 33 - - - - - - - 9.9 1009.5 6.2
19/06:00am WSW 26 31 - - - - - - - 10.1 1009.1 6.2
19/05:30am WSW 27 31 - - - - - - - 10.0 1009.1 6.2
19/05:00am WSW 24 30 - - - - - - - 9.9 1008.7 6.2
19/04:40am W 19 25 - - - - - - - 9.9 1008.7 6.2
19/04:30am WNW 21 32 - - - - - - - 9.9 1008.2 6.2
19/04:29am WNW 21 32 - - - - - - - 9.8 1008.2 6.2
19/04:00am WNW 16 20 - - - - - - - 9.5 1008.4 5.8
19/03:30am WNW 18 21 - - - - - - - 9.3 1008.0 5.8
19/03:00am W 25 31 - - - - - - Rain 8.8 1007.9 5.8
19/02:30am WNW 21 24 - - - - - - - 10.1 1007.9 4.8
19/02:00am WNW 17 20 - - - - - - - 9.8 1008.0 4.8
19/01:30am NW 14 19 - - - - - - - 9.7 1008.2 4.8
19/01:00am WSW 13 17 - - - - - - - 8.4 1008.4 4.4
19/12:45am W 18 22 - - - - - - - 8.7 1008.3 2.4
19/12:30am WNW 17 21 - - - - - - - 9.9 1007.9 1.6
19/12:00am WNW 19 23 - - - - - - Rain 9.8 1007.7 1.2
 
Date/Time
EST
Wind Sea
Height
m
Swell Vis
km
Cloud Weather Temp
°C
Press
MSL
hPa
Rain since
9am
mm
Dir  Spd
kts
Gust
kts
Height
m
Period
s
Dir
18/11:30pm WNW 21 25 - - - - - - - 10.0 1007.5 0.8
18/11:00pm WNW 20 24 - - - - - - - 10.6 1007.4 0.0
18/10:30pm WNW 23 26 - - - - - - - 10.8 1007.0 0.0
18/10:00pm WNW 19 24 - - - - - - - 10.8 1006.8 0.0
18/09:30pm WNW 20 24 - - - - - - - 10.7 1006.9 0.0
18/09:00pm WNW 23 27 - - - - - - - 11.3 1006.7 0.0
18/08:30pm WNW 26 30 - - - - - - - 11.4 1006.5 0.0
18/08:00pm WNW 22 25 - - - - - - - 11.2 1006.3 0.0
18/07:30pm WNW 25 31 - - - - - - - 10.7 1006.3 0.0
18/07:00pm W 30 35 - - - - - - - 11.0 1006.1 0.0
18/06:30pm W 31 37 - - - - - - - 10.8 1005.5 0.0
18/06:00pm W 38 48 - - - - - - - 10.9 1004.9 0.0
18/05:48pm WNW 31 45 - - - - - - - 12.4 1004.4 0.0
18/05:30pm WNW 29 34 - - - - - - - 12.9 1004.0 0.0
18/05:00pm NW 25 31 - - - - - - - 12.9 1003.7 0.0
18/04:34pm WNW 26 36 - - - - - - - 13.2 1003.3 0.0
18/04:30pm NW 24 31 - - - - - - - 13.3 1003.4 0.0
18/04:20pm NW 25 33 - - - - - - - 13.2 1003.4 0.0
18/04:00pm WNW 32 37 - - - - - - - 13.6 1003.0 0.0
18/03:30pm WNW 32 38 - - - - - - - 13.6 1003.1 0.0
18/03:00pm WNW 28 33 - - - - - - - 13.6 1003.2 0.0
18/02:30pm WNW 34 38 - - - - - - - 13.7 1003.0 0.0
18/02:00pm WNW 32 37 - - - - - - - 13.9 1002.8 0.0
18/01:30pm WNW 29 36 - - - - - - - 13.8 1002.9 0.0
18/01:00pm WNW 27 34 - - - - - - - 13.9 1003.0 0.0
18/12:30pm NW 24 30 - - - - - - - 14.0 1003.5 0.0
18/12:00pm NW 25 29 - - - - - - - 13.6 1004.0 0.0
18/11:30am NNW 21 29 - - - - - - - 13.2 1004.5 0.0
18/11:20am NNW 17 27 - - - - - - - 13.3 1004.5 0.0
18/11:00am N 22 31 - - - - - - - 13.3 1004.3 0.0
18/10:30am N 29 39 - - - - - - - 13.4 1004.1 0.0
18/10:23am N 26 37 - - - - - - - 13.2 1004.3 0.0
18/10:00am N 28 34 - - - - - - - 12.7 1004.5 0.0
18/09:30am N 29 38 - - - - - - - 13.2 1004.6 0.0
18/09:07am N 28 38 - - - - - - - 13.3 1004.3 0.0
18/09:00am N 26 33 - - - - - - - 12.4 1005.1 0.6
18/08:30am N 29 35 - - - - - - - 13.1 1005.8 0.6
18/08:00am N 26 31 - - - - - - - 12.7 1005.9 0.6
18/07:59am N 26 31 - - - - - - - 12.7 1006.0 0.6
18/07:30am NNW 15 21 - - - - - - - 12.3 1006.8 0.4
18/07:00am NNW 18 26 - - - - - - - 12.9 1006.7 0.4
18/06:55am NNW 16 26 - - - - - - - 12.7 1006.7 0.4
18/06:30am N 19 26 - - - - - - - 12.7 1007.1 0.4
18/06:00am N 22 26 - - - - - - - 11.9 1007.3 0.4
18/05:30am N 19 22 - - - - - - - 11.4 1007.3 0.4
18/05:00am N 14 17 - - - - - - - 11.3 1008.1 0.4
18/04:30am N 13 15 - - - - - - - 11.3 1008.3 0.4
18/04:00am N 14 17 - - - - - - - 11.3 1008.7 0.4
18/03:30am N 12 17 - - - - - - - 12.1 1008.6 0.2
18/03:00am NNW 9 13 - - - - - - - 11.7 1009.4 0.2
18/02:30am N 15 19 - - - - - - - 11.6 1009.3 0.2
18/02:00am N 13 17 - - - - - - - 11.6 1010.0 0.2
18/01:30am N 13 17 - - - - - - - 11.2 1009.8 0.2
18/01:00am N 16 18 - - - - - - - 11.4 1009.7 0.0
18/12:30am N 15 18 - - - - - - - 11.5 1010.1 0.0
18/12:00am N 16 20 - - - - - - - 11.5 1010.4 0.0
 
Date/Time
EST
Wind Sea
Height
m
Swell Vis
km
Cloud Weather Temp
°C
Press
MSL
hPa
Rain since
9am
mm
Dir  Spd
kts
Gust
kts
Height
m
Period
s
Dir
17/11:30pm N 15 19 - - - - - - - 11.4 1011.0 0.0
17/11:00pm N 18 22 - - - - - - - 11.6 1011.4 0.0
17/10:30pm N 22 26 - - - - - - - 11.6 1011.8 0.0
17/10:00pm N 16 21 - - - - - - - 11.7 1012.6 0.0
17/09:30pm N 15 19 - - - - - - - 11.6 1012.9 0.0
17/09:00pm N 16 19 - - - - - - - 11.6 1012.8 0.0
17/08:30pm N 14 17 - - - - - - - 11.6 1013.1 0.0
17/08:00pm N 15 17 - - - - - - - 11.4 1013.3 0.0
17/07:30pm N 14 16 - - - - - - - 11.1 1013.9 0.0
17/07:00pm N 14 16 - - - - - - - 10.9 1014.1 0.0
17/06:30pm NNE 13 16 - - - - - - - 10.6 1014.0 0.0
17/06:00pm NNE 13 15 - - - - - - - 10.3 1013.7 0.0
17/05:30pm N 13 15 - - - - - - - 10.4 1014.3 0.0
17/05:00pm NNE 11 14 - - - - - - - 10.5 1014.3 0.0
17/04:30pm N 11 13 - - - - - - - 10.7 1014.3 0.0
17/04:00pm NNW 10 13 - - - - - - - 11.0 1014.8 0.0
17/03:30pm N 10 12 - - - - - - - 11.4 1014.9 0.0
17/03:00pm N 10 13 - - - - - - - 11.8 1015.0 0.0
17/02:30pm N 10 12 - - - - - - - 11.5 1015.1 0.0
17/02:00pm N 8 10 - - - - - - - 11.8 1015.7 0.0
17/01:30pm N 8 10 - - - - - - - 12.4 1015.6 0.0
17/01:00pm NW 8 11 - - - - - - - 12.8 1016.3 0.0
17/12:30pm NW 8 11 - - - - - - - 11.8 1017.3 0.0
17/12:00pm WNW 9 11 - - - - - - - 12.1 1017.9 0.0
17/11:30am WNW 13 16 - - - - - - - 11.2 1018.0 0.0
17/11:00am WNW 11 15 - - - - - - - 11.5 1018.5 0.0
17/10:30am NW 12 15 - - - - - - - 11.0 1018.5 0.0
17/10:00am WNW 10 12 - - - - - - - 10.4 1018.7 0.0
17/09:30am WNW 11 13 - - - - - - - 10.6 1018.6 0.0
17/09:00am W 14 17 - - - - - - - 10.6 1018.8 0.0
17/08:30am W 17 20 - - - - - - - 10.2 1018.6 0.0
17/08:00am W 15 19 - - - - - - - 9.9 1018.4 0.0
17/07:30am WSW 19 21 - - - - - - - 9.9 1018.2 0.0
17/07:00am W 19 21 - - - - - - - 9.9 1018.0 0.0
17/06:30am W 18 21 - - - - - - - 10.3 1017.5 0.0
17/06:00am W 19 22 - - - - - - - 10.4 1017.4 0.0
17/05:30am W 20 23 - - - - - - - 10.8 1016.8 0.0
17/05:00am W 21 25 - - - - - - - 10.5 1016.8 0.0
17/04:30am W 22 26 - - - - - - - 10.2 1016.6 0.0
17/04:00am W 21 25 - - - - - - - 10.2 1016.2 0.0
17/03:30am W 21 24 - - - - - - - 10.2 1016.2 0.0
17/03:00am W 20 23 - - - - - - - 10.2 1016.0 0.0
17/02:30am W 24 27 - - - - - - - 10.7 1016.0 0.0
17/02:00am W 26 32 - - - - - - - 10.2 1016.0 0.0
17/01:30am W 27 30 - - - - - - - 10.2 1015.9 0.0
17/01:00am W 22 28 - - - - - - - 10.1 1015.7 0.0
17/12:30am WSW 26 30 - - - - - - - 10.4 1015.4 0.0
17/12:00am W 25 29 - - - - - - - 10.7 1015.6 0.0
 
Date/Time
EST
Wind Sea
Height
m
Swell Vis
km
Cloud Weather Temp
°C
Press
MSL
hPa
Rain since
9am
mm
Dir  Spd
kts
Gust
kts
Height
m
Period
s
Dir
16/11:30pm W 25 28 - - - - - - - 10.8 1015.7 0.0
16/11:00pm W 22 25 - - - - - - - 10.9 1015.6 0.0
16/10:30pm WSW 20 23 - - - - - - - 11.0 1015.9 0.0
16/10:00pm WSW 20 23 - - - - - - - 11.0 1015.7 0.0
16/09:30pm WSW 23 26 - - - - - - - 11.0 1015.4 0.0
16/09:00pm WSW 24 28 - - - - - - - 10.9 1015.1 0.0
16/08:30pm WSW 25 28 - - - - - - - 11.1 1014.9 0.0
16/08:00pm WSW 28 33 - - - - - - - 11.2 1014.6 0.0
16/07:30pm WSW 29 34 - - - - - - - 11.3 1014.4 0.0
16/07:00pm WSW 27 32 - - - - - - - 11.3 1013.7 0.0
16/06:30pm WSW 25 29 - - - - - - - 11.3 1012.9 0.0
16/06:00pm WSW 23 26 - - - - - - - 11.2 1012.1 0.0
16/05:30pm WSW 25 30 - - - - - - - 11.5 1011.4 0.0
16/05:00pm WSW 24 27 - - - - - - - 11.7 1011.2 0.0
16/04:30pm WSW 25 28 - - - - - - - 11.9 1010.6 0.0
16/04:00pm WSW 27 31 - - - - - - - 12.0 1010.4 0.0
16/03:30pm WSW 27 32 - - - - - - - 12.3 1010.2 0.0
16/03:00pm WSW 29 34 - - - - - - - 13.1 1010.0 0.0
16/02:30pm WSW 29 35 - - - - - - - 12.8 1009.6 0.0
16/02:00pm WSW 28 33 - - - - - - - 12.7 1009.1 0.0
16/01:30pm WSW 33 38 - - - - - - - 12.9 1008.7 0.0
16/01:00pm WSW 30 35 - - - - - - - 12.9 1008.6 0.0
16/12:30pm WSW 28 33 - - - - - - - 13.0 1008.5 0.0
16/12:00pm WSW 28 32 - - - - - - - 12.7 1008.5 0.0
16/11:30am WSW 29 36 - - - - - - - 12.7 1008.4 0.0
16/11:00am WSW 31 36 - - - - - - - 12.0 1008.3 0.0
16/10:30am WSW 31 37 - - - - - - - 12.2 1008.1 0.0
16/10:00am WSW 31 37 - - - - - - - 11.9 1007.6 0.0

Other formats

Comma delimited format used in spreadsheet applications
http://www.bom.gov.au/fwo/IDT60701/IDT60701.94949.axf

JavaScript Object Notation format (JSON) in row-major order
http://www.bom.gov.au/fwo/IDT60701/IDT60701.94949.json

Data quality

Most of these data are generated automatically and are frequently updated. Quality checks on data are not normally performed. It is possible for incorrect values to appear. Refer to information at About Latest Weather Observations and please check the disclaimer before using these data.